Terminal Aerodrome Forecast
Issued by NWS

Home | Current Version | Previous Version | Text Only | Print | Product List | Glossary On
Versions: 1 2 3 4 5 6 7 8 9 10 11 12 13 14 15
000
FTUS45 KRIW 262300
TAFCPR
TAF
KCPR 262320Z 2700/2724 VRB10G18KT P6SM VCTS SCT040 BKN060CB
     FM270400 24007KT P6SM VCSH BKN050
     FM271300 24012KT P6SM SCT040 BKN100
     FM272000 VRB12G18KT P6SM VCTS SCT040CB BKN070=

USA.gov is the U.S. government's official web portal to all federal, state and local government web resources and services.